Main page
METAR-TAF:

METAR-TAF

Airports :

Goodland Municipal Airport (Renner Field)

Goodland, Kansas, United States

latitude: 39-22-03N, longitude: 101-41-35W, elevation: 3654 ft

Current weather observation

The report was made 37 minutes ago, at 12:53 UTC
Wind 6 mph from the West
Temperature 28°F
Humidity 69%
Pressure 30.05 in. Hg
Visibility: 10 miles
Clear sky

METAR: KGLD 221253Z AUTO 27005KT 10SM CLR M02/M07 A3005 RMK AO2 SLP192 T10221072

Time: 06:30 (13:30 UTC)

Forecast

The report was made 2 hours and 10 minutes ago, at 11:20 UTC
Forecast valid from 22 at 12 UTC to 23 at 12 UTC
Wind 7 mph from variable directions
Visibility: 6 miles
Broken clouds at a height of 25000 ft

TAF: KGLD 221120Z 2212/2312 VRB06KT P6SM BKN250

Weather observations and forecasts of more than 4000 airports (METAR and TAF reports).

The available stations are represented by yellow and red dots on the map.

Hover mouse over dot to see the name of the station.

Then click to see weather observations and forecasts.

To change the map : click on the green buttons with a black cross to zoom in, on the green button with a dash to zoom out, or on the green arrows for adjacent maps.


METAR-TAF: